Urb Las Campinas I, Puerto Rico
Current Conditions -  °F | °C
As of 4:53 PM on Friday 24 Oct 2014 (Local Time) from TJNR Reporting Station
Clear Clear  
Wind Chill: 86°   Ceiling: Unl
Heat Index: 95°   Visibility: 10mi
Dew Point: 75°   Wind: 8mph
Humidity: 70%   Direction: 170°S
Pressure: 29.9"   Gusts: NA
Location:  18.1853°N, 65.8667°W
Report Text: TJNR 242053Z AUTO 17007KT 10SM CLR 30/24 A2990 RMK AO2 SLP123 T03000239 56009
Loading
Personal Weather Stations






























Interactive Weather Map
Tropical Storm Tracking
New forecast layout! Learn more

10-Day Weather Forecast

Advertisements
Track Severe Weather on mobile